createdAt,value
2023-02-12T00:01:41.035Z,77.13
2023-02-12T00:06:43.744Z,94.82
2023-02-12T00:11:46.395Z,75.07
2023-02-12T00:16:49.062Z,75.68
2023-02-12T00:21:51.737Z,78.18
2023-02-12T00:26:54.404Z,83.45
2023-02-12T00:31:57.260Z,82.07
2023-02-12T00:37:02.778Z,67.15
2023-02-12T00:42:05.718Z,85.80
2023-02-12T00:47:08.639Z,84.53
2023-02-12T00:52:11.821Z,67.05
2023-02-12T00:57:14.651Z,69.38
2023-02-12T01:02:18.526Z,87.05
2023-02-12T01:07:22.645Z,64.38
2023-02-12T01:12:25.481Z,74.80
2023-02-12T01:17:30.149Z,62.75
2023-02-12T01:22:34.833Z,75.90
2023-02-12T01:27:38.369Z,74.90
2023-02-12T01:32:41.108Z,73.45
2023-02-12T01:37:44.149Z,72.18
2023-02-12T01:42:46.818Z,82.75
2023-02-12T01:47:49.650Z,87.00
2023-02-12T01:52:55.451Z,71.57
2023-02-12T01:57:58.171Z,85.07
2023-02-12T02:03:02.680Z,82.72
2023-02-12T02:08:05.821Z,77.90
2023-02-12T02:13:27.298Z,59.78
2023-02-12T02:18:35.854Z,92.72
2023-02-12T02:24:15.028Z,108.20
2023-02-12T02:29:43.657Z,101.97
2023-02-12T02:34:54.302Z,86.75
2023-02-12T02:40:03.082Z,78.63
2023-02-12T02:45:30.512Z,100.72
2023-02-12T02:50:35.914Z,94.00
2023-02-12T02:55:43.866Z,122.43
2023-02-12T03:00:51.250Z,124.88
2023-02-12T03:05:57.289Z,129.25
2023-02-12T03:11:11.851Z,96.57
2023-02-12T03:16:31.464Z,127.95
2023-02-12T03:22:23.418Z,73.00
2023-02-12T03:27:44.967Z,95.95
2023-02-12T03:32:47.635Z,110.43
2023-02-12T03:38:12.460Z,149.57
2023-02-12T03:43:23.615Z,122.03
2023-02-12T03:48:55.503Z,120.20
2023-02-12T03:53:58.436Z,125.78
2023-02-12T03:59:01.312Z,133.45
2023-02-12T04:04:07.118Z,119.90
2023-02-12T04:09:11.036Z,202.55
2023-02-12T04:14:48.670Z,200.07
2023-02-12T04:20:00.457Z,153.32
2023-02-12T04:25:29.366Z,116.15
2023-02-12T04:30:44.015Z,105.47
2023-02-12T04:35:55.972Z,140.98
2023-02-12T04:40:59.075Z,133.25
2023-02-12T04:46:02.658Z,134.43
2023-02-12T04:51:05.628Z,162.25
2023-02-12T04:56:12.233Z,158.05
2023-02-12T05:01:15.370Z,159.25
2023-02-12T05:06:18.078Z,163.45
2023-02-12T05:16:23.662Z,180.25
2023-02-12T05:21:26.440Z,149.10
2023-02-12T05:26:29.177Z,186.30
2023-02-12T05:31:31.980Z,171.30
2023-02-12T05:36:34.829Z,157.70
2023-02-12T05:41:37.734Z,146.93
2023-02-12T05:46:40.714Z,140.07
2023-02-12T05:51:43.466Z,148.98
2023-02-12T05:56:47.904Z,124.30
2023-02-12T06:01:51.993Z,139.25
2023-02-12T06:06:56.168Z,124.80
2023-02-12T06:11:58.806Z,111.68
2023-02-12T06:17:01.526Z,150.70
2023-02-12T06:22:04.323Z,156.10
2023-02-12T06:27:07.099Z,133.05
2023-02-12T06:32:09.837Z,167.77
2023-02-12T06:37:12.881Z,168.23
2023-02-12T06:42:15.683Z,168.18
2023-02-12T06:47:18.466Z,168.07
2023-02-12T06:52:21.968Z,174.57
2023-02-12T06:57:24.711Z,174.35
2023-02-12T07:02:27.558Z,127.13
2023-02-12T07:07:30.515Z,114.87
2023-02-12T07:12:34.371Z,143.20
2023-02-12T07:17:37.214Z,162.23
2023-02-12T07:22:40.048Z,174.63
2023-02-12T07:27:42.716Z,184.95
2023-02-12T07:32:45.472Z,167.48
2023-02-12T07:37:48.032Z,178.23
2023-02-12T07:42:56.107Z,195.25
2023-02-12T07:47:59.006Z,188.50
2023-02-12T07:53:02.077Z,238.60
2023-02-12T07:58:04.839Z,193.07
2023-02-12T08:03:07.558Z,277.65
2023-02-12T08:08:10.171Z,269.38
2023-02-12T08:13:12.795Z,285.02
2023-02-12T08:18:15.435Z,302.75
2023-02-12T08:23:18.128Z,300.58
2023-02-12T08:28:20.907Z,282.95
2023-02-12T08:33:23.806Z,285.20
2023-02-12T08:38:26.727Z,312.25
2023-02-12T08:43:29.571Z,318.80
2023-02-12T08:48:32.716Z,314.25
2023-02-12T08:53:35.767Z,282.55
2023-02-12T08:58:38.592Z,340.77
2023-02-12T09:03:41.276Z,303.13
2023-02-12T09:08:44.393Z,251.15
2023-02-12T09:13:48.083Z,151.55
2023-02-12T09:18:50.781Z,252.40
2023-02-12T09:23:53.550Z,254.50
2023-02-12T09:28:56.667Z,168.27
2023-02-12T09:34:05.135Z,38.42
2023-02-12T09:39:07.853Z,36.22
2023-02-12T09:44:32.267Z,29.42
2023-02-12T09:49:47.868Z,26.42
2023-02-12T09:54:51.169Z,26.20
2023-02-12T09:59:59.027Z,25.70
2023-02-12T10:05:02.597Z,23.88
2023-02-12T10:10:11.367Z,25.55
2023-02-12T10:15:33.239Z,31.45
2023-02-12T10:20:57.457Z,30.35
2023-02-12T10:26:09.755Z,30.77
2023-02-12T10:31:32.316Z,30.70
2023-02-12T10:36:57.015Z,28.05
2023-02-12T10:42:35.264Z,22.48
2023-02-12T10:47:37.874Z,24.90
2023-02-12T10:53:03.671Z,22.95
2023-02-12T10:58:19.169Z,23.20
2023-02-12T11:03:24.453Z,20.73
2023-02-12T11:08:30.226Z,23.95
2023-02-12T11:13:33.012Z,26.63
2023-02-12T11:18:37.034Z,29.15
2023-02-12T11:23:44.303Z,32.47
2023-02-12T11:29:01.566Z,24.55
2023-02-12T11:34:20.127Z,24.77
2023-02-12T11:39:31.004Z,30.92
2023-02-12T11:44:38.492Z,27.85
2023-02-12T11:49:51.566Z,23.60
2023-02-12T11:54:57.627Z,23.13
2023-02-12T12:00:02.242Z,23.35
2023-02-12T12:05:13.804Z,24.95
2023-02-12T12:10:32.209Z,29.65
2023-02-12T12:16:01.881Z,20.00
2023-02-12T12:21:25.623Z,27.58
2023-02-12T12:26:30.865Z,22.65
2023-02-12T12:31:39.646Z,25.10
2023-02-12T12:37:20.003Z,22.17
2023-02-12T12:42:53.730Z,22.52
2023-02-12T12:53:31.133Z,27.98
2023-02-12T12:59:24.523Z,19.25
2023-02-12T13:04:32.099Z,29.55
2023-02-12T13:09:49.014Z,29.80
2023-02-12T13:15:07.230Z,29.45
2023-02-12T13:20:30.177Z,30.33
2023-02-12T13:26:15.817Z,28.60
2023-02-12T13:31:33.053Z,28.10
2023-02-12T13:36:37.741Z,28.08
2023-02-12T13:47:01.057Z,32.45
2023-02-12T13:52:07.525Z,33.72
2023-02-12T13:57:15.048Z,33.97
2023-02-12T14:02:39.205Z,32.85
2023-02-12T14:07:53.162Z,37.33
2023-02-12T14:18:02.605Z,32.47
2023-02-12T14:23:44.157Z,34.58
2023-02-12T14:28:57.228Z,30.13
2023-02-12T14:34:22.498Z,37.40
2023-02-12T14:39:25.311Z,28.05
2023-02-12T14:44:29.343Z,26.10
2023-02-12T14:49:37.192Z,23.52
2023-02-12T14:54:49.568Z,29.95
2023-02-12T15:00:02.760Z,30.65
2023-02-12T15:05:21.185Z,33.35
2023-02-12T15:10:28.275Z,31.98
2023-02-12T15:15:38.076Z,28.75
2023-02-12T15:20:52.227Z,28.05
2023-02-12T15:25:55.271Z,37.90
2023-02-12T15:30:58.227Z,27.17
2023-02-12T15:36:02.954Z,27.17
2023-02-12T15:41:06.890Z,33.25
2023-02-12T15:46:17.279Z,36.60
2023-02-12T15:51:35.249Z,29.60
2023-02-12T15:56:41.228Z,36.92
2023-02-12T16:01:54.190Z,41.85
2023-02-12T16:06:57.251Z,36.43
2023-02-12T16:12:03.352Z,38.17
2023-02-12T16:17:22.404Z,41.10
2023-02-12T16:22:31.321Z,41.92
2023-02-12T16:27:35.321Z,35.13
2023-02-12T16:32:46.842Z,36.13
2023-02-12T16:37:52.181Z,33.97
2023-02-12T16:42:54.826Z,76.85
2023-02-12T16:48:09.454Z,91.00
2023-02-12T16:53:35.915Z,96.32
2023-02-12T16:58:38.810Z,89.10
2023-02-12T17:03:41.813Z,86.90
2023-02-12T17:08:44.639Z,78.03
2023-02-12T17:13:49.080Z,103.72
2023-02-12T17:18:51.790Z,89.13
2023-02-12T17:23:54.832Z,78.70
2023-02-12T17:29:05.640Z,78.40
2023-02-12T17:34:08.581Z,88.97
2023-02-12T17:39:12.870Z,81.00
2023-02-12T17:44:16.667Z,90.05
2023-02-12T17:49:19.538Z,86.25
2023-02-12T17:54:22.182Z,70.63
2023-02-12T17:59:25.042Z,64.70
2023-02-12T18:04:27.989Z,90.32
2023-02-12T18:09:31.950Z,88.90
2023-02-12T18:19:37.576Z,92.77
2023-02-12T18:24:41.677Z,82.17
2023-02-12T18:29:44.712Z,96.43
2023-02-12T18:34:47.447Z,112.37
2023-02-12T18:39:50.155Z,115.10
2023-02-12T18:44:52.890Z,81.00
2023-02-12T18:49:58.243Z,74.50
2023-02-12T18:55:00.926Z,100.10
2023-02-12T19:00:05.317Z,108.97
2023-02-12T19:05:10.524Z,115.82
2023-02-12T19:10:13.932Z,163.38
2023-02-12T19:15:17.801Z,133.20
2023-02-12T19:25:22.982Z,173.02
2023-02-12T19:30:25.642Z,151.63
2023-02-12T19:35:28.432Z,155.32
2023-02-12T19:40:32.484Z,153.67
2023-02-12T19:50:37.632Z,150.95
2023-02-12T19:55:40.276Z,105.78
2023-02-12T20:00:43.289Z,137.90
2023-02-12T20:05:52.205Z,121.25
2023-02-12T20:10:55.247Z,140.70
2023-02-12T20:16:05.457Z,118.70
2023-02-12T20:21:16.659Z,119.88
2023-02-12T20:26:20.194Z,128.75
2023-02-12T20:31:29.273Z,126.60
2023-02-12T20:36:34.383Z,132.35
2023-02-12T20:41:37.606Z,122.90
2023-02-12T20:46:42.344Z,87.40
2023-02-12T20:51:46.001Z,88.20
2023-02-12T20:56:50.126Z,89.07
2023-02-12T21:01:52.885Z,120.15
2023-02-12T21:06:55.578Z,135.13
2023-02-12T21:11:59.494Z,156.13
2023-02-12T21:17:02.292Z,137.52
2023-02-12T21:22:04.946Z,92.20
2023-02-12T21:27:07.865Z,186.55
2023-02-12T21:32:10.923Z,165.90
2023-02-12T21:37:13.818Z,135.77
2023-02-12T21:42:16.564Z,184.97
2023-02-12T21:47:19.502Z,151.20
2023-02-12T21:52:22.114Z,154.87
2023-02-12T21:57:24.887Z,134.07
2023-02-12T22:02:27.588Z,134.80
2023-02-12T22:07:30.247Z,127.65
2023-02-12T22:12:35.084Z,112.97
2023-02-12T22:17:37.801Z,91.63
2023-02-12T22:22:40.837Z,77.03
2023-02-12T22:27:43.483Z,83.03
2023-02-12T22:32:46.411Z,112.67
2023-02-12T22:37:49.324Z,65.40
2023-02-12T22:42:52.025Z,85.83
2023-02-12T22:47:54.780Z,71.87
2023-02-12T22:52:57.484Z,85.53
2023-02-12T22:58:00.195Z,95.80
2023-02-12T23:03:02.790Z,94.80
2023-02-12T23:08:06.525Z,80.80
2023-02-12T23:13:10.453Z,84.88
2023-02-12T23:18:13.146Z,94.03
2023-02-12T23:23:16.365Z,65.38
2023-02-12T23:28:19.591Z,77.72
2023-02-12T23:33:23.143Z,101.32
2023-02-12T23:38:26.021Z,90.28
2023-02-12T23:43:28.883Z,80.10
2023-02-12T23:48:31.645Z,85.90
2023-02-12T23:53:34.511Z,59.85
2023-02-12T23:58:37.346Z,73.03
